createdAt,value
2019-01-11T00:03:16.189Z,101410.51
2019-01-11T00:08:12.204Z,101405.44
2019-01-11T00:13:08.240Z,101402.52
2019-01-11T00:18:04.243Z,101394.02
2019-01-11T00:23:00.292Z,101395.56
2019-01-11T00:27:56.198Z,101387.30
2019-01-11T00:32:52.085Z,101388.27
2019-01-11T00:37:48.084Z,101380.60
2019-01-11T00:42:44.089Z,101379.75
2019-01-11T00:47:40.083Z,101369.52
2019-01-11T00:52:36.041Z,101370.56
2019-01-11T00:57:31.946Z,101367.16
2019-01-11T01:02:27.952Z,101356.41
2019-01-11T01:07:23.967Z,101356.08
2019-01-11T01:12:19.866Z,101355.37
2019-01-11T01:17:15.872Z,101351.96
2019-01-11T01:22:11.785Z,101349.72
2019-01-11T01:27:07.892Z,101351.11
2019-01-11T01:32:03.987Z,101350.78
2019-01-11T01:36:59.906Z,101345.08
2019-01-11T01:41:55.903Z,101334.02
2019-01-11T01:46:51.813Z,101335.66
2019-01-11T01:51:47.739Z,101327.78
2019-01-11T01:56:43.684Z,101327.78
2019-01-11T02:01:39.675Z,101325.66
2019-01-11T02:06:35.690Z,101322.38
2019-01-11T02:11:31.620Z,101318.25
2019-01-11T02:16:27.520Z,101316.48
2019-01-11T02:21:23.410Z,101316.73
2019-01-11T02:26:19.314Z,101310.82
2019-01-11T02:31:15.333Z,101310.23
2019-01-11T02:36:11.325Z,101309.42
2019-01-11T02:41:07.226Z,101304.11
2019-01-11T02:46:03.228Z,101300.81
2019-01-11T02:50:59.153Z,101291.27
2019-01-11T02:55:55.188Z,101280.06
2019-01-11T03:00:51.094Z,101275.34
2019-01-11T03:05:46.993Z,101273.69
2019-01-11T03:10:42.995Z,101271.54
2019-01-11T03:15:38.890Z,101269.08
2019-01-11T03:20:34.787Z,101271.44
2019-01-11T03:25:30.792Z,101273.20
2019-01-11T03:30:26.721Z,101265.67
2019-01-11T03:35:22.669Z,101256.70
2019-01-11T03:40:20.615Z,101251.73
2019-01-11T03:45:18.703Z,101235.11
2019-01-11T03:50:16.930Z,101225.45
2019-01-11T03:55:13.738Z,101220.80
2019-01-11T04:00:15.573Z,101224.23
2019-01-11T04:05:11.791Z,101216.34
2019-01-11T04:10:11.504Z,101213.40
2019-01-11T04:15:10.419Z,101202.87
2019-01-11T04:20:15.710Z,101200.27
2019-01-11T04:25:13.616Z,101198.04
2019-01-11T04:30:12.215Z,101203.91
2019-01-11T04:35:08.226Z,101214.67
2019-01-11T04:40:05.537Z,101205.11
2019-01-11T04:45:01.454Z,101211.76
2019-01-11T04:49:57.358Z,101202.22
2019-01-11T04:54:53.260Z,101197.03
2019-01-11T04:59:49.157Z,101178.78
2019-01-11T05:04:45.064Z,101173.33
2019-01-11T05:09:40.995Z,101174.66
2019-01-11T05:14:36.880Z,101168.86
2019-01-11T05:19:33.505Z,101175.40
2019-01-11T05:24:29.365Z,101175.75
2019-01-11T05:29:25.263Z,101171.15
2019-01-11T05:34:21.177Z,101160.95
2019-01-11T05:39:17.181Z,101167.44
2019-01-11T05:44:13.089Z,101160.91
2019-01-11T05:49:13.432Z,101161.26
2019-01-11T05:54:09.461Z,101157.02
2019-01-11T05:59:05.687Z,101154.06
2019-01-11T06:04:03.497Z,101155.55
2019-01-11T06:08:59.395Z,101157.47
2019-01-11T06:13:55.287Z,101152.55
2019-01-11T06:18:51.547Z,101150.49
2019-01-11T06:23:47.563Z,101150.03
2019-01-11T06:28:43.443Z,101142.66
2019-01-11T06:33:39.352Z,101143.32
2019-01-11T06:38:35.248Z,101151.91
2019-01-11T06:43:31.144Z,101146.45
2019-01-11T06:48:28.973Z,101144.75
2019-01-11T06:53:24.893Z,101140.09
2019-01-11T06:58:20.817Z,101138.09
2019-01-11T07:03:16.722Z,101150.03
2019-01-11T07:08:12.621Z,101137.55
2019-01-11T07:13:09.481Z,101144.92
2019-01-11T07:18:05.581Z,101148.47
2019-01-11T07:23:01.482Z,101137.81
2019-01-11T07:27:59.390Z,101130.43
2019-01-11T07:32:55.399Z,101136.60
2019-01-11T07:37:51.327Z,101137.04
2019-01-11T07:42:47.218Z,101147.52
2019-01-11T07:47:43.363Z,101140.88
2019-01-11T07:52:40.203Z,101136.85
2019-01-11T07:57:36.672Z,101139.13
2019-01-11T08:02:32.620Z,101141.41
2019-01-11T08:07:28.514Z,101142.94
2019-01-11T08:12:24.542Z,101146.19
2019-01-11T08:17:20.542Z,101146.76
2019-01-11T08:22:18.332Z,101144.40
2019-01-11T08:27:14.240Z,101145.63
2019-01-11T08:32:10.140Z,101134.58
2019-01-11T08:37:06.059Z,101142.25
2019-01-11T08:42:01.968Z,101127.95
2019-01-11T08:46:57.869Z,101123.78
2019-01-11T08:51:53.867Z,101127.33
2019-01-11T08:56:49.798Z,101120.77
2019-01-11T09:01:45.698Z,101116.41
2019-01-11T09:06:41.615Z,101122.91
2019-01-11T09:11:37.588Z,101118.73
2019-01-11T09:16:33.487Z,101129.55
2019-01-11T09:21:30.414Z,101121.68
2019-01-11T09:26:26.417Z,101124.75
2019-01-11T09:31:22.318Z,101123.52
2019-01-11T09:36:18.420Z,101113.47
2019-01-11T09:41:14.324Z,101107.92
2019-01-11T09:46:10.240Z,101107.17
2019-01-11T09:51:06.162Z,101105.13
2019-01-11T09:56:02.264Z,101112.09
2019-01-11T10:00:59.260Z,101110.27
2019-01-11T10:05:55.365Z,101108.76
2019-01-11T10:10:51.262Z,101100.35
2019-01-11T10:15:48.054Z,101102.59
2019-01-11T10:20:44.187Z,101104.16
2019-01-11T10:25:40.320Z,101093.61
2019-01-11T10:30:36.218Z,101087.23
2019-01-11T10:35:32.211Z,101087.78
2019-01-11T10:40:28.216Z,101083.52
2019-01-11T10:45:24.230Z,101082.03
2019-01-11T10:50:20.230Z,101080.09
2019-01-11T10:55:19.007Z,101070.16
2019-01-11T11:00:18.557Z,101070.67
2019-01-11T11:05:14.603Z,101060.81
2019-01-11T11:10:12.123Z,101047.06
2019-01-11T11:15:13.318Z,101043.95
2019-01-11T11:20:11.809Z,101045.06
2019-01-11T11:25:10.210Z,101038.20
2019-01-11T11:30:09.322Z,101028.61
2019-01-11T11:35:05.219Z,101019.34
2019-01-11T11:40:01.129Z,101015.92
2019-01-11T11:44:57.022Z,101007.58
2019-01-11T11:49:53.665Z,101003.41
2019-01-11T11:54:49.544Z,100999.52
2019-01-11T11:59:45.451Z,100989.80
2019-01-11T12:04:41.342Z,100986.52
2019-01-11T12:09:37.223Z,100975.13
2019-01-11T12:14:33.127Z,100968.52
2019-01-11T12:19:29.023Z,100959.27
2019-01-11T12:24:24.940Z,100950.61
2019-01-11T12:29:20.948Z,100947.59
2019-01-11T12:34:16.852Z,100934.77
2019-01-11T12:39:12.752Z,100935.39
2019-01-11T12:44:08.777Z,100919.97
2019-01-11T12:49:07.902Z,100917.70
2019-01-11T12:54:03.998Z,100920.06
2019-01-11T12:58:59.923Z,100913.33
2019-01-11T13:03:55.840Z,100911.13
2019-01-11T13:08:51.729Z,100906.08
2019-01-11T13:13:48.398Z,100900.05
2019-01-11T13:18:47.508Z,100895.85
2019-01-11T13:23:43.615Z,100888.84
2019-01-11T13:28:39.512Z,100881.33
2019-01-11T13:33:35.509Z,100873.34
2019-01-11T13:38:31.421Z,100880.39
2019-01-11T13:43:27.329Z,100875.81
2019-01-11T13:48:23.228Z,100872.06
2019-01-11T13:53:19.327Z,100867.66
2019-01-11T13:58:15.227Z,100869.80
2019-01-11T14:03:11.227Z,100865.20
2019-01-11T14:08:07.240Z,100866.51
2019-01-11T14:13:03.150Z,100865.55
2019-01-11T14:17:59.050Z,100864.58
2019-01-11T14:22:55.375Z,100861.64
2019-01-11T14:27:51.303Z,100868.01
2019-01-11T14:32:47.313Z,100869.81
2019-01-11T14:37:43.313Z,100877.66
2019-01-11T14:42:39.307Z,100875.04
2019-01-11T14:47:35.433Z,100873.73
2019-01-11T14:52:31.406Z,100872.08
2019-01-11T14:57:27.456Z,100869.62
2019-01-11T15:02:23.343Z,100865.86
2019-01-11T15:07:19.246Z,100872.39
2019-01-11T15:12:15.159Z,100863.53
2019-01-11T15:17:11.053Z,100863.23
2019-01-11T15:22:06.959Z,100864.84
2019-01-11T15:27:02.851Z,100858.64
2019-01-11T15:31:58.755Z,100861.77
2019-01-11T15:36:54.666Z,100853.08
2019-01-11T15:41:50.576Z,100858.01
2019-01-11T15:46:46.484Z,100848.51
2019-01-11T15:51:42.385Z,100854.55
2019-01-11T15:56:38.318Z,100855.05
2019-01-11T16:01:34.209Z,100863.87
2019-01-11T16:06:30.425Z,100855.22
2019-01-11T16:11:30.331Z,100863.23
2019-01-11T16:16:26.329Z,100852.77
2019-01-11T16:21:22.330Z,100859.15
2019-01-11T16:26:18.240Z,100853.08
2019-01-11T16:31:14.142Z,100847.70
2019-01-11T16:36:10.048Z,100853.73
2019-01-11T16:41:05.976Z,100854.88
2019-01-11T16:46:01.973Z,100863.53
2019-01-11T16:50:57.875Z,100860.62
2019-01-11T16:55:53.818Z,100868.78
2019-01-11T17:00:49.730Z,100886.45
2019-01-11T17:05:45.728Z,100889.41
2019-01-11T17:10:41.643Z,100888.58
2019-01-11T17:15:37.544Z,100900.34
2019-01-11T17:20:33.452Z,100898.39
2019-01-11T17:25:29.350Z,100905.91
2019-01-11T17:30:25.287Z,100894.31
2019-01-11T17:35:21.918Z,100898.06
2019-01-11T17:40:17.818Z,100902.48
2019-01-11T17:45:21.748Z,100911.48
2019-01-11T17:50:19.121Z,100911.65
2019-01-11T17:55:15.186Z,100910.98
2019-01-11T18:00:13.875Z,100910.17
2019-01-11T18:05:12.354Z,100913.94
2019-01-11T18:10:10.373Z,100916.22
2019-01-11T18:15:11.219Z,100922.41
2019-01-11T18:20:17.542Z,100935.36
2019-01-11T18:25:14.456Z,100937.13
2019-01-11T18:30:15.442Z,100945.96
2019-01-11T18:35:12.440Z,100942.70
2019-01-11T18:40:19.866Z,100951.35
2019-01-11T18:45:15.964Z,100952.02
2019-01-11T18:50:39.744Z,100951.85
2019-01-11T18:55:37.552Z,100953.16
2019-01-11T19:00:35.540Z,100952.83
2019-01-11T19:05:33.525Z,100955.78
2019-01-11T19:10:29.430Z,100955.14
2019-01-11T19:15:26.234Z,100955.61
2019-01-11T19:20:24.238Z,100958.73
2019-01-11T19:25:20.233Z,100948.27
2019-01-11T19:30:19.043Z,100956.92
2019-01-11T19:35:15.039Z,100945.66
2019-01-11T19:40:13.455Z,100952.53
2019-01-11T19:45:11.382Z,100952.52
2019-01-11T19:50:10.149Z,100958.55
2019-01-11T19:55:07.771Z,100955.13
2019-01-11T20:00:33.085Z,100960.03
2019-01-11T20:05:28.993Z,100965.90
2019-01-11T20:10:27.287Z,100966.73
2019-01-11T20:15:23.407Z,100966.41
2019-01-11T20:20:19.690Z,100965.27
2019-01-11T20:25:18.119Z,100971.30
2019-01-11T20:30:22.774Z,100973.75
2019-01-11T20:35:18.789Z,100977.49
2019-01-11T20:40:36.476Z,100976.05
2019-01-11T20:45:32.397Z,100986.64
2019-01-11T20:50:28.459Z,100987.48
2019-01-11T20:55:24.927Z,100981.58
2019-01-11T21:00:27.008Z,100973.11
2019-01-11T21:05:24.218Z,100981.59
2019-01-11T21:10:20.991Z,100983.55
2019-01-11T21:15:21.712Z,100979.13
2019-01-11T21:20:18.615Z,100977.21
2019-01-11T21:25:16.561Z,100974.73
2019-01-11T21:30:22.308Z,100982.58
2019-01-11T21:35:18.514Z,100977.84
2019-01-11T21:40:16.397Z,100975.39
2019-01-11T21:45:13.651Z,100974.89
2019-01-11T21:50:14.827Z,100977.67
2019-01-11T21:55:12.147Z,100979.48
2019-01-11T22:05:36.799Z,100988.48
2019-01-11T22:10:32.703Z,100982.23
2019-01-11T22:15:28.702Z,100980.25
2019-01-11T22:20:24.699Z,100971.27
2019-01-11T22:25:20.642Z,100976.99
2019-01-11T22:30:21.376Z,100976.84
2019-01-11T22:35:18.423Z,100972.59
2019-01-11T22:40:21.251Z,100966.91
2019-01-11T22:45:17.161Z,100978.00
2019-01-11T22:50:14.788Z,100977.36
2019-01-11T22:55:15.572Z,100972.44
2019-01-11T23:00:35.213Z,100973.09
2019-01-11T23:05:31.342Z,100969.16
2019-01-11T23:10:50.884Z,100963.58
2019-01-11T23:15:47.015Z,100969.47
2019-01-11T23:20:43.134Z,100968.63
2019-01-11T23:25:39.244Z,100968.46
2019-01-11T23:30:35.390Z,100959.15
2019-01-11T23:35:31.409Z,100966.99
2019-01-11T23:40:27.330Z,100961.28
2019-01-11T23:45:23.508Z,100972.22
2019-01-11T23:50:19.452Z,100965.55
2019-01-11T23:55:15.382Z,100967.49
